Time;durP1;ratioP1;P1;durP2;ratioP2;P2;SDS_P1;SDS_P2;PMS_P1;PMS_P2;Temp;Humidity;BMP_temperature;BMP_pressure;BME280_temperature;BME280_humidity;BME280_pressure;Samples;Min_cycle;Max_cycle;Signal;HPM_P1;HPM_P2
2023/05/20 00:00:00;;;;;;;;;;;11.40;99.90;;;;;;5079155;28;19928;-57
2023/05/20 00:02:26;;;;;;;;;;;11.40;99.90;;;;;;5082758;28;19924;-56
2023/05/20 00:04:53;;;;;;;;;;;11.30;99.90;;;;;;5083315;28;19933;-58
2023/05/20 00:07:19;;;;;;;;;;;11.30;99.90;;;;;;5081026;28;19925;-60
2023/05/20 00:09:46;;;;;;;;;;;11.20;99.90;;;;;;5088849;28;20360;-58
2023/05/20 00:12:12;;;;;;;;;;;11.20;99.90;;;;;;5089545;28;19929;-59
2023/05/20 00:14:40;;;;;;;;;;;11.20;1.00;;;;;;5084085;28;19970;-57
2023/05/20 00:17:07;;;;;;;;;;;11.20;1.00;;;;;;5084854;28;20277;-57
2023/05/20 00:19:33;;;;;;;;;;;11.10;1.00;;;;;;5084450;28;19978;-59
2023/05/20 00:22:00;;;;;;;;;;;11.10;1.00;;;;;;5086500;28;19978;-58
2023/05/20 00:24:26;;;;;;;;;;;11.00;1.00;;;;;;5080998;28;19925;-58
2023/05/20 00:26:53;;;;;;;;;;;11.00;24.80;;;;;;5084948;28;19925;-56
2023/05/20 00:29:20;;;;;;;;;;;10.90;94.50;;;;;;5083965;28;19925;-55
2023/05/20 00:31:48;;;;;;;;;;;10.90;99.90;;;;;;5084493;28;19982;-56
2023/05/20 00:34:15;;;;;;;;;;;10.80;99.90;;;;;;5082008;28;19924;-56
2023/05/20 00:36:41;;;;;;;;;;;10.70;99.90;;;;;;5084888;28;19981;-58
2023/05/20 00:39:08;;;;;;;;;;;10.80;1.00;;;;;;5088759;28;19982;-56
2023/05/20 00:41:35;;;;;;;;;;;10.80;1.00;;;;;;5088245;28;19950;-55
2023/05/20 00:44:01;;;;;;;;;;;10.80;99.90;;;;;;5085430;28;19951;-56
2023/05/20 00:46:28;;;;;;;;;;;10.80;99.90;;;;;;5086409;28;19928;-56
2023/05/20 00:48:57;;;;;;;;;;;10.80;99.90;;;;;;5084806;28;20339;-56
2023/05/20 00:51:23;;;;;;;;;;;10.80;99.90;;;;;;5079966;28;19928;-56
2023/05/20 00:53:50;;;;;;;;;;;10.80;99.90;;;;;;5085092;28;19977;-58
2023/05/20 00:56:17;;;;;;;;;;;10.80;99.90;;;;;;5082457;28;19931;-59
2023/05/20 00:58:44;;;;;;;;;;;10.70;1.00;;;;;;5085096;28;19928;-56
2023/05/20 01:01:10;;;;;;;;;;;10.60;1.00;;;;;;5089574;28;19931;-55
2023/05/20 01:03:36;;;;;;;;;;;10.60;42.30;;;;;;5086426;28;19924;-58
2023/05/20 01:06:05;;;;;;;;;;;10.60;92.60;;;;;;5086166;28;20377;-57
2023/05/20 01:08:32;;;;;;;;;;;10.70;99.90;;;;;;5088069;28;20284;-57
2023/05/20 01:11:03;;;;;;;;;;;10.60;99.90;;;;;;5088324;28;20359;-59
2023/05/20 01:13:32;;;;;;;;;;;10.60;99.90;;;;;;5084470;28;19924;-57
2023/05/20 01:16:00;;;;;;;;;;;10.60;99.90;;;;;;5084215;28;19936;-57
2023/05/20 01:18:29;;;;;;;;;;;10.60;99.90;;;;;;5074140;28;19951;-57
2023/05/20 01:21:00;;;;;;;;;;;10.50;1.00;;;;;;5073854;28;19925;-58
2023/05/20 01:23:32;;;;;;;;;;;10.50;1.00;;;;;;5073914;28;20015;-57
2023/05/20 01:25:58;;;;;;;;;;;10.50;1.00;;;;;;5082094;28;19933;-56
2023/05/20 01:28:25;;;;;;;;;;;10.50;8.30;;;;;;5082596;28;19928;-56
2023/05/20 01:30:55;;;;;;;;;;;10.50;1.00;;;;;;5082636;28;19928;-59
2023/05/20 01:33:24;;;;;;;;;;;10.50;3.40;;;;;;5083055;28;20408;-57
2023/05/20 01:35:51;;;;;;;;;;;10.40;99.90;;;;;;5079107;28;19931;-55
2023/05/20 01:38:19;;;;;;;;;;;10.40;99.90;;;;;;5085919;28;19970;-58
2023/05/20 01:40:47;;;;;;;;;;;10.40;99.90;;;;;;5093045;28;19924;-59
2023/05/20 01:43:14;;;;;;;;;;;10.40;99.90;;;;;;5076960;28;19929;-59
2023/05/20 01:45:41;;;;;;;;;;;10.30;99.90;;;;;;5075513;28;19925;-58
2023/05/20 01:48:09;;;;;;;;;;;10.30;99.90;;;;;;5073631;28;19951;-55
2023/05/20 01:50:36;;;;;;;;;;;10.30;1.00;;;;;;5080094;28;19978;-58
2023/05/20 01:53:02;;;;;;;;;;;10.20;99.90;;;;;;5080928;28;19933;-57
2023/05/20 01:55:29;;;;;;;;;;;10.30;99.90;;;;;;5082072;28;19978;-57
2023/05/20 01:57:57;;;;;;;;;;;10.30;67.40;;;;;;5081955;28;19924;-58
2023/05/20 02:00:24;;;;;;;;;;;10.30;39.90;;;;;;5072556;28;19925;-58
2023/05/20 02:02:50;;;;;;;;;;;10.20;74.00;;;;;;5073178;28;19936;-58
2023/05/20 02:05:17;;;;;;;;;;;10.20;99.90;;;;;;5082107;28;19979;-57
2023/05/20 02:07:43;;;;;;;;;;;10.20;99.90;;;;;;5087489;28;19924;-57
2023/05/20 02:10:10;;;;;;;;;;;10.20;99.90;;;;;;5087599;28;20372;-57
2023/05/20 02:12:37;;;;;;;;;;;10.20;99.90;;;;;;5079869;28;19988;-59
2023/05/20 02:15:05;;;;;;;;;;;10.10;99.90;;;;;;5088755;28;19928;-59
2023/05/20 02:17:32;;;;;;;;;;;10.10;1.00;;;;;;5088957;28;19924;-59
2023/05/20 02:19:58;;;;;;;;;;;10.10;1.00;;;;;;5081671;28;19932;-59
2023/05/20 02:22:25;;;;;;;;;;;10.10;1.00;;;;;;5080475;28;20393;-58
2023/05/20 02:24:51;;;;;;;;;;;10.10;99.90;;;;;;5084362;28;19977;-58
2023/05/20 02:27:18;;;;;;;;;;;10.10;99.90;;;;;;5079171;28;19924;-59
2023/05/20 02:29:44;;;;;;;;;;;10.10;99.90;;;;;;5084072;28;20044;-58
2023/05/20 02:32:12;;;;;;;;;;;10.10;99.90;;;;;;5083880;28;19924;-59
2023/05/20 02:34:39;;;;;;;;;;;10.10;67.50;;;;;;5080150;28;19978;-59
2023/05/20 02:37:05;;;;;;;;;;;10.10;1.00;;;;;;5077859;28;20002;-58
2023/05/20 02:39:32;;;;;;;;;;;10.20;1.00;;;;;;5087401;28;19970;-58
2023/05/20 02:41:58;;;;;;;;;;;10.20;1.00;;;;;;5086775;28;19925;-59
2023/05/20 02:44:25;;;;;;;;;;;10.10;1.00;;;;;;5083467;28;19924;-59
2023/05/20 02:46:51;;;;;;;;;;;10.10;99.90;;;;;;5084702;28;19924;-59
2023/05/20 02:49:19;;;;;;;;;;;10.10;99.90;;;;;;5082276;28;19924;-59
2023/05/20 02:51:46;;;;;;;;;;;10.00;99.90;;;;;;5079502;28;19994;-60
2023/05/20 02:54:12;;;;;;;;;;;10.00;99.90;;;;;;5080957;28;20351;-58
2023/05/20 02:56:39;;;;;;;;;;;10.00;99.90;;;;;;5080622;28;20327;-57
2023/05/20 02:59:06;;;;;;;;;;;10.00;99.90;;;;;;5083827;28;19969;-59
2023/05/20 03:01:34;;;;;;;;;;;10.00;99.90;;;;;;5080905;28;20010;-59
2023/05/20 03:04:00;;;;;;;;;;;10.00;99.90;;;;;;5082018;28;20408;-60
2023/05/20 03:06:29;;;;;;;;;;;10.00;99.90;;;;;;5089553;28;19931;-60
2023/05/20 03:08:56;;;;;;;;;;;10.00;99.90;;;;;;5088116;28;20278;-59
2023/05/20 03:11:23;;;;;;;;;;;9.90;1.00;;;;;;5090989;28;19982;-60
2023/05/20 03:13:50;;;;;;;;;;;9.90;1.00;;;;;;5088026;28;19924;-59
2023/05/20 03:16:17;;;;;;;;;;;9.90;1.00;;;;;;5076361;28;19924;-59
2023/05/20 03:18:43;;;;;;;;;;;9.90;1.00;;;;;;5093320;28;19928;-59
2023/05/20 03:21:10;;;;;;;;;;;9.90;1.00;;;;;;5080578;28;20326;-60
2023/05/20 03:23:37;;;;;;;;;;;9.80;23.80;;;;;;5093228;28;20044;-60
2023/05/20 03:26:05;;;;;;;;;;;9.90;99.90;;;;;;5081991;28;19925;-59
2023/05/20 03:28:32;;;;;;;;;;;9.80;90.00;;;;;;5090552;28;20336;-60
2023/05/20 03:30:58;;;;;;;;;;;9.80;99.90;;;;;;5090439;28;19973;-59
2023/05/20 03:33:26;;;;;;;;;;;9.80;1.00;;;;;;5080271;28;19924;-59
2023/05/20 03:35:52;;;;;;;;;;;9.70;99.90;;;;;;5082020;28;20397;-58
2023/05/20 03:38:19;;;;;;;;;;;9.70;99.90;;;;;;5093264;28;19928;-59
2023/05/20 03:40:46;;;;;;;;;;;9.70;99.90;;;;;;5084725;28;19925;-59
2023/05/20 03:43:13;;;;;;;;;;;9.70;99.90;;;;;;5084181;28;19978;-59
2023/05/20 03:45:40;;;;;;;;;;;9.70;1.00;;;;;;5082730;28;19924;-60
2023/05/20 03:48:06;;;;;;;;;;;9.70;1.00;;;;;;5081048;28;20376;-59
2023/05/20 03:50:33;;;;;;;;;;;9.70;1.00;;;;;;5097315;28;19924;-60
2023/05/20 03:52:59;;;;;;;;;;;9.70;1.00;;;;;;5090247;28;19924;-59
2023/05/20 03:55:26;;;;;;;;;;;9.70;1.00;;;;;;5091180;28;20341;-60
2023/05/20 03:57:54;;;;;;;;;;;9.70;1.00;;;;;;5096234;28;19930;-60
2023/05/20 04:00:21;;;;;;;;;;;9.80;99.90;;;;;;5092865;28;19924;-60
2023/05/20 04:02:48;;;;;;;;;;;9.80;99.90;;;;;;5098119;28;19924;-60
2023/05/20 04:05:14;;;;;;;;;;;9.80;99.90;;;;;;5081206;28;20408;-59
2023/05/20 04:07:41;;;;;;;;;;;9.90;99.90;;;;;;5088112;28;19925;-61
2023/05/20 04:10:08;;;;;;;;;;;9.90;1.00;;;;;;5089608;28;20005;-62
2023/05/20 04:12:36;;;;;;;;;;;9.90;1.00;;;;;;5098951;28;19928;-58
2023/05/20 04:15:05;;;;;;;;;;;10.00;1.00;;;;;;5080038;28;19964;-59
2023/05/20 04:17:32;;;;;;;;;;;10.00;1.00;;;;;;5078360;28;19948;-59
2023/05/20 04:19:59;;;;;;;;;;;10.00;99.90;;;;;;5093340;28;19928;-59
2023/05/20 04:22:25;;;;;;;;;;;10.00;85.30;;;;;;5095229;28;20342;-58
2023/05/20 04:24:52;;;;;;;;;;;10.00;68.90;;;;;;5088370;28;19929;-60
2023/05/20 04:27:19;;;;;;;;;;;10.10;1.00;;;;;;5082245;28;20429;-58
2023/05/20 04:29:46;;;;;;;;;;;10.10;99.90;;;;;;5096395;28;19985;-60
2023/05/20 04:32:14;;;;;;;;;;;10.20;99.90;;;;;;5096838;28;19924;-59
2023/05/20 04:34:41;;;;;;;;;;;10.20;99.90;;;;;;5089294;28;20339;-60
2023/05/20 04:37:08;;;;;;;;;;;10.30;1.00;;;;;;5085361;28;19953;-60
2023/05/20 04:39:35;;;;;;;;;;;10.40;99.90;;;;;;5095359;28;19928;-59
2023/05/20 04:42:02;;;;;;;;;;;10.40;99.90;;;;;;5093317;28;19924;-59
2023/05/20 04:44:28;;;;;;;;;;;10.50;99.90;;;;;;5095665;28;20408;-59
2023/05/20 04:46:56;;;;;;;;;;;10.60;1.00;;;;;;5095443;28;19924;-60
2023/05/20 04:49:25;;;;;;;;;;;10.60;1.00;;;;;;5083521;28;19924;-59
2023/05/20 04:51:51;;;;;;;;;;;10.70;99.90;;;;;;5095563;28;20300;-60
2023/05/20 04:54:19;;;;;;;;;;;10.80;7.20;;;;;;5088580;28;19970;-60
2023/05/20 04:56:45;;;;;;;;;;;10.80;1.00;;;;;;5095533;28;19950;-60
2023/05/20 04:59:12;;;;;;;;;;;10.90;1.00;;;;;;5084076;28;19924;-59
2023/05/20 05:01:39;;;;;;;;;;;10.90;1.00;;;;;;5074831;28;19924;-60
2023/05/20 05:04:06;;;;;;;;;;;10.90;99.90;;;;;;5078523;28;19924;-60
2023/05/20 05:06:34;;;;;;;;;;;11.00;99.90;;;;;;5078048;28;19978;-58
2023/05/20 05:09:00;;;;;;;;;;;11.10;99.90;;;;;;5086889;28;19970;-57
2023/05/20 05:11:27;;;;;;;;;;;11.20;1.00;;;;;;5090971;28;19928;-57
2023/05/20 05:13:54;;;;;;;;;;;11.20;99.90;;;;;;5083351;28;19925;-57
2023/05/20 05:16:21;;;;;;;;;;;11.30;99.90;;;;;;5083505;28;19924;-57
2023/05/20 05:18:48;;;;;;;;;;;11.30;1.00;;;;;;5084985;28;20331;-56
2023/05/20 05:21:14;;;;;;;;;;;11.40;1.00;;;;;;5081470;28;19974;-55
2023/05/20 05:23:42;;;;;;;;;;;11.40;10.50;;;;;;5085316;28;19924;-58
2023/05/20 05:26:09;;;;;;;;;;;11.50;1.00;;;;;;5082789;28;19931;-58
2023/05/20 05:28:35;;;;;;;;;;;11.50;1.00;;;;;;5077581;28;20324;-59
2023/05/20 05:31:02;;;;;;;;;;;11.60;99.90;;;;;;5085110;28;19924;-56
2023/05/20 05:33:28;;;;;;;;;;;11.60;99.90;;;;;;5085224;28;19947;-56
2023/05/20 05:35:57;;;;;;;;;;;11.70;99.90;;;;;;5081601;28;19937;-59
2023/05/20 05:38:24;;;;;;;;;;;11.80;1.00;;;;;;5085723;28;19954;-59
2023/05/20 05:40:52;;;;;;;;;;;11.80;99.90;;;;;;5085911;28;19974;-59
2023/05/20 05:43:18;;;;;;;;;;;11.90;99.90;;;;;;5085372;28;19978;-59
2023/05/20 05:45:45;;;;;;;;;;;11.90;1.00;;;;;;5083667;28;19928;-59
2023/05/20 05:48:11;;;;;;;;;;;12.00;99.90;;;;;;5085174;28;20342;-59
2023/05/20 05:50:38;;;;;;;;;;;12.10;1.00;;;;;;5080917;28;19925;-59
2023/05/20 05:53:04;;;;;;;;;;;12.10;99.90;;;;;;5084246;28;19977;-58
2023/05/20 05:55:32;;;;;;;;;;;12.00;1.00;;;;;;5081883;28;19931;-59
2023/05/20 05:57:59;;;;;;;;;;;12.00;99.90;;;;;;5083354;28;19932;-59
2023/05/20 06:00:26;;;;;;;;;;;12.00;99.90;;;;;;5085074;28;19929;-59
2023/05/20 06:02:52;;;;;;;;;;;12.00;99.90;;;;;;5082312;28;19924;-59
2023/05/20 06:05:19;;;;;;;;;;;12.00;25.30;;;;;;5083807;28;19925;-60
2023/05/20 06:07:46;;;;;;;;;;;12.20;99.90;;;;;;5080244;28;19928;-60
2023/05/20 06:10:12;;;;;;;;;;;12.30;1.00;;;;;;5086930;28;19969;-59
2023/05/20 06:12:39;;;;;;;;;;;12.50;1.00;;;;;;5089564;28;19978;-59
2023/05/20 06:15:07;;;;;;;;;;;12.60;99.90;;;;;;5084236;28;19989;-59
2023/05/20 06:17:34;;;;;;;;;;;12.70;99.90;;;;;;5084161;28;19931;-60
2023/05/20 06:20:00;;;;;;;;;;;12.80;99.90;;;;;;5084482;28;19923;-60
2023/05/20 06:22:27;;;;;;;;;;;12.90;46.60;;;;;;5078119;28;19928;-59
2023/05/20 06:24:55;;;;;;;;;;;13.00;1.00;;;;;;5083967;28;20384;-56
2023/05/20 06:27:21;;;;;;;;;;;13.00;1.00;;;;;;5082184;28;19928;-58
2023/05/20 06:29:48;;;;;;;;;;;13.10;1.00;;;;;;5079018;28;19925;-58
2023/05/20 06:32:16;;;;;;;;;;;13.00;1.00;;;;;;5084074;28;20283;-53
2023/05/20 06:34:42;;;;;;;;;;;13.00;1.00;;;;;;5078435;28;19933;-57
2023/05/20 06:37:10;;;;;;;;;;;12.90;1.00;;;;;;5084036;28;20335;-56
2023/05/20 06:39:36;;;;;;;;;;;13.00;87.20;;;;;;5084479;28;19930;-57
2023/05/20 06:42:03;;;;;;;;;;;13.20;1.00;;;;;;5086989;28;19928;-58
2023/05/20 06:44:30;;;;;;;;;;;13.40;1.00;;;;;;5081090;28;19928;-58
2023/05/20 06:46:57;;;;;;;;;;;13.60;1.00;;;;;;5082461;28;19978;-55
2023/05/20 06:49:25;;;;;;;;;;;13.80;99.90;;;;;;5078251;28;19928;-56
2023/05/20 06:51:51;;;;;;;;;;;13.90;99.90;;;;;;5083040;28;20023;-56
2023/05/20 06:54:18;;;;;;;;;;;14.00;99.90;;;;;;5083633;28;20351;-57
2023/05/20 06:56:44;;;;;;;;;;;14.00;99.90;;;;;;5080279;28;19977;-57
2023/05/20 06:59:11;;;;;;;;;;;14.00;99.90;;;;;;5079713;28;19929;-58
2023/05/20 07:01:37;;;;;;;;;;;14.00;99.90;;;;;;5083338;28;19924;-59
2023/05/20 07:04:04;;;;;;;;;;;13.80;99.90;;;;;;5081933;28;19924;-58
2023/05/20 07:06:32;;;;;;;;;;;13.70;1.00;;;;;;5083622;28;20047;-57
2023/05/20 07:08:59;;;;;;;;;;;13.70;99.90;;;;;;5085451;28;19981;-59
2023/05/20 07:11:26;;;;;;;;;;;13.70;99.90;;;;;;5089914;28;19928;-58
2023/05/20 07:13:53;;;;;;;;;;;13.70;99.90;;;;;;5082416;28;20014;-58
2023/05/20 07:16:19;;;;;;;;;;;13.80;99.90;;;;;;5082639;28;19931;-58
2023/05/20 07:18:46;;;;;;;;;;;13.80;99.90;;;;;;5087157;28;20343;-57
2023/05/20 07:21:12;;;;;;;;;;;13.80;99.90;;;;;;5076354;28;19924;-56
2023/05/20 07:23:40;;;;;;;;;;;13.90;99.90;;;;;;5075895;28;19932;-58
2023/05/20 07:26:06;;;;;;;;;;;13.90;99.90;;;;;;5077935;28;19928;-59
2023/05/20 07:28:34;;;;;;;;;;;13.90;99.90;;;;;;5078202;28;19924;-60
2023/05/20 07:31:00;;;;;;;;;;;14.00;99.90;;;;;;5078162;28;19979;-60
2023/05/20 07:33:28;;;;;;;;;;;13.90;99.90;;;;;;5077819;28;19978;-59
2023/05/20 07:35:54;;;;;;;;;;;14.00;99.90;;;;;;5078680;28;19925;-60
2023/05/20 07:38:21;;;;;;;;;;;14.00;99.90;;;;;;5086447;28;20442;-60
2023/05/20 07:40:49;;;;;;;;;;;14.10;99.90;;;;;;5096411;28;19924;-60
2023/05/20 07:43:16;;;;;;;;;;;14.20;99.90;;;;;;5097074;28;19924;-59
2023/05/20 07:45:42;;;;;;;;;;;14.30;99.90;;;;;;5085404;28;19928;-60
2023/05/20 07:48:09;;;;;;;;;;;14.10;99.90;;;;;;5088244;28;20001;-60
2023/05/20 07:50:36;;;;;;;;;;;14.20;99.90;;;;;;5085387;28;19977;-59
2023/05/20 07:53:03;;;;;;;;;;;14.30;98.70;;;;;;5092332;28;19977;-60
2023/05/20 07:55:30;;;;;;;;;;;14.40;99.90;;;;;;5083944;28;20284;-59
2023/05/20 07:57:57;;;;;;;;;;;14.40;95.90;;;;;;5077832;28;19979;-60
2023/05/20 08:00:24;;;;;;;;;;;14.60;99.90;;;;;;5079438;28;19932;-60
2023/05/20 08:02:50;;;;;;;;;;;14.90;99.90;;;;;;5080550;28;20429;-60
2023/05/20 08:05:17;;;;;;;;;;;14.90;99.90;;;;;;5082573;28;19925;-60
2023/05/20 08:07:44;;;;;;;;;;;14.90;6.90;;;;;;5080077;28;19971;-60
2023/05/20 08:10:10;;;;;;;;;;;14.80;1.00;;;;;;5094500;28;20011;-60
2023/05/20 08:12:37;;;;;;;;;;;14.80;29.30;;;;;;5089398;28;19928;-60
2023/05/20 08:15:05;;;;;;;;;;;14.90;1.00;;;;;;5093120;28;19924;-59
2023/05/20 08:17:32;;;;;;;;;;;14.90;1.00;;;;;;5092895;28;20372;-59
2023/05/20 08:19:59;;;;;;;;;;;14.90;1.00;;;;;;5091234;28;19924;-59
2023/05/20 08:22:26;;;;;;;;;;;14.90;1.00;;;;;;5093923;28;20545;-60
2023/05/20 08:24:52;;;;;;;;;;;14.70;1.00;;;;;;5094790;28;19924;-59
2023/05/20 08:27:19;;;;;;;;;;;14.60;19.90;;;;;;5084366;28;19925;-60
2023/05/20 08:29:45;;;;;;;;;;;14.60;1.00;;;;;;5084881;28;19931;-60
2023/05/20 08:32:13;;;;;;;;;;;14.60;99.90;;;;;;5080893;28;20347;-60
2023/05/20 08:34:39;;;;;;;;;;;14.60;1.00;;;;;;5082041;28;19924;-60
2023/05/20 08:37:06;;;;;;;;;;;14.70;1.00;;;;;;5079869;28;19981;-60
2023/05/20 08:39:32;;;;;;;;;;;14.50;1.00;;;;;;5093289;28;19924;-59
2023/05/20 08:42:00;;;;;;;;;;;14.60;1.00;;;;;;5092334;28;19924;-60
2023/05/20 08:44:27;;;;;;;;;;;14.70;43.30;;;;;;5079453;28;20281;-60
2023/05/20 08:46:54;;;;;;;;;;;14.80;1.00;;;;;;5076289;28;19924;-60
2023/05/20 08:49:22;;;;;;;;;;;14.80;1.00;;;;;;5078573;28;19924;-59
2023/05/20 08:51:49;;;;;;;;;;;14.90;1.00;;;;;;5090409;28;19924;-59
2023/05/20 08:54:16;;;;;;;;;;;15.10;1.00;;;;;;5086750;28;20330;-60
2023/05/20 08:56:43;;;;;;;;;;;15.10;1.00;;;;;;5080115;28;19924;-60
2023/05/20 08:59:10;;;;;;;;;;;14.80;1.00;;;;;;5085363;28;19924;-59
2023/05/20 09:01:41;;;;;;;;;;;14.60;1.00;;;;;;5089372;28;19932;-60
2023/05/20 09:04:08;;;;;;;;;;;14.70;1.00;;;;;;5084274;28;19924;-60
2023/05/20 09:06:43;;;;;;;;;;;14.60;1.00;;;;;;5087961;28;19947;-60
2023/05/20 09:09:10;;;;;;;;;;;14.60;7.20;;;;;;5078486;28;19924;-59
2023/05/20 09:11:37;;;;;;;;;;;14.70;1.00;;;;;;5089794;28;19928;-60
2023/05/20 09:14:03;;;;;;;;;;;14.80;1.00;;;;;;5082584;28;19924;-62
2023/05/20 09:16:30;;;;;;;;;;;14.80;6.90;;;;;;5078659;28;19974;-58
2023/05/20 09:18:56;;;;;;;;;;;14.80;1.00;;;;;;5082656;28;19928;-59
2023/05/20 09:21:25;;;;;;;;;;;14.80;55.70;;;;;;5081792;28;19970;-59
2023/05/20 09:23:56;;;;;;;;;;;14.90;31.40;;;;;;5074598;28;19924;-58
2023/05/20 09:26:23;;;;;;;;;;;15.10;90.60;;;;;;5079222;28;19928;-59
2023/05/20 09:28:50;;;;;;;;;;;15.30;79.60;;;;;;5089473;28;19924;-59
2023/05/20 09:31:17;;;;;;;;;;;15.40;1.00;;;;;;5087730;28;19934;-59
2023/05/20 09:33:43;;;;;;;;;;;15.20;1.00;;;;;;5077443;28;19924;-62
2023/05/20 09:36:10;;;;;;;;;;;15.00;1.00;;;;;;5087961;28;19985;-61
2023/05/20 09:38:38;;;;;;;;;;;15.00;1.00;;;;;;5084876;28;19928;-61
2023/05/20 09:41:08;;;;;;;;;;;15.10;1.00;;;;;;5089950;28;20396;-59
2023/05/20 09:43:35;;;;;;;;;;;15.00;1.00;;;;;;5084400;28;19931;-60
2023/05/20 09:46:02;;;;;;;;;;;14.90;1.00;;;;;;5084318;28;19924;-59
2023/05/20 09:48:29;;;;;;;;;;;15.00;59.60;;;;;;5088925;28;19931;-60
2023/05/20 09:50:56;;;;;;;;;;;15.00;1.00;;;;;;5083127;28;19924;-60
2023/05/20 09:53:23;;;;;;;;;;;14.90;1.00;;;;;;5083065;28;19970;-60
2023/05/20 09:55:50;;;;;;;;;;;14.80;1.00;;;;;;5080526;28;19924;-60
2023/05/20 09:58:19;;;;;;;;;;;14.80;7.60;;;;;;5085869;28;19928;-58
2023/05/20 10:00:46;;;;;;;;;;;14.70;7.80;;;;;;5087698;28;20334;-58
2023/05/20 10:03:13;;;;;;;;;;;14.80;99.90;;;;;;5080130;28;19943;-60
2023/05/20 10:05:42;;;;;;;;;;;14.90;75.30;;;;;;5082377;28;19987;-61
2023/05/20 10:08:21;;;;;;;;;;;14.90;65.00;;;;;;5084704;28;19929;-61
2023/05/20 10:10:50;;;;;;;;;;;14.80;1.00;;;;;;5087420;28;19928;-62
2023/05/20 10:13:42;;;;;;;;;;;14.80;36.90;;;;;;5079737;28;20380;-61
2023/05/20 10:16:13;;;;;;;;;;;14.80;69.30;;;;;;5076740;28;20003;-61
2023/05/20 10:18:45;;;;;;;;;;;15.00;2.70;;;;;;5080946;28;20331;-61
2023/05/20 10:21:15;;;;;;;;;;;15.10;1.00;;;;;;5072145;28;20292;-59
2023/05/20 10:23:42;;;;;;;;;;;15.10;99.90;;;;;;5072240;28;19924;-56
2023/05/20 10:26:08;;;;;;;;;;;15.10;14.00;;;;;;5072460;28;19928;-58
2023/05/20 10:28:37;;;;;;;;;;;15.20;45.20;;;;;;5072072;28;19939;-60
2023/05/20 10:31:14;;;;;;;;;;;15.00;1.00;;;;;;5079648;28;19924;-60
2023/05/20 10:33:42;;;;;;;;;;;15.00;1.00;;;;;;5083243;28;19924;-60
2023/05/20 10:36:08;;;;;;;;;;;15.10;52.00;;;;;;5078478;28;20377;-59
2023/05/20 10:38:35;;;;;;;;;;;15.20;34.40;;;;;;5083002;28;19977;-59
2023/05/20 10:41:07;;;;;;;;;;;15.20;1.00;;;;;;5084840;28;19932;-61
2023/05/20 10:43:34;;;;;;;;;;;15.30;36.50;;;;;;5087565;28;19924;-57
2023/05/20 10:46:02;;;;;;;;;;;15.40;99.90;;;;;;5088445;28;19993;-59
2023/05/20 10:48:30;;;;;;;;;;;15.30;25.30;;;;;;5082722;28;19982;-57
2023/05/20 10:50:58;;;;;;;;;;;15.40;8.00;;;;;;5083958;28;20447;-59
2023/05/20 10:53:25;;;;;;;;;;;15.60;1.00;;;;;;5081215;28;19924;-61
2023/05/20 10:55:53;;;;;;;;;;;15.70;62.70;;;;;;5081321;28;19928;-62
2023/05/20 10:58:21;;;;;;;;;;;15.90;93.40;;;;;;5083225;28;19982;-62
2023/05/20 11:00:47;;;;;;;;;;;16.00;1.00;;;;;;5083078;28;19982;-62
2023/05/20 11:03:19;;;;;;;;;;;15.80;1.00;;;;;;5080159;28;21505;-62
2023/05/20 11:05:46;;;;;;;;;;;16.00;99.90;;;;;;5081565;28;19925;-61
2023/05/20 11:08:12;;;;;;;;;;;16.10;1.00;;;;;;5084713;28;20002;-63
2023/05/20 11:10:39;;;;;;;;;;;16.30;1.00;;;;;;5083736;28;19924;-61
2023/05/20 11:13:06;;;;;;;;;;;16.40;1.00;;;;;;5080413;28;19924;-61
2023/05/20 11:15:34;;;;;;;;;;;16.60;1.00;;;;;;5076550;28;19971;-60
2023/05/20 11:18:02;;;;;;;;;;;16.60;1.00;;;;;;5090955;28;20365;-60
2023/05/20 11:20:33;;;;;;;;;;;16.80;1.00;;;;;;5085348;28;20441;-62
2023/05/20 11:23:00;;;;;;;;;;;16.80;1.00;;;;;;5080734;28;19924;-62
2023/05/20 11:25:27;;;;;;;;;;;16.70;1.00;;;;;;5081218;28;19925;-63
2023/05/20 11:27:54;;;;;;;;;;;16.90;1.00;;;;;;5082290;28;20339;-63
2023/05/20 11:30:21;;;;;;;;;;;17.00;1.00;;;;;;5079711;28;19924;-64
2023/05/20 11:32:56;;;;;;;;;;;17.20;99.90;;;;;;5081841;28;20023;-62
2023/05/20 11:35:23;;;;;;;;;;;17.30;99.90;;;;;;5083040;28;19977;-64
2023/05/20 11:37:56;;;;;;;;;;;17.40;99.90;;;;;;5079250;28;19967;-64
2023/05/20 11:40:26;;;;;;;;;;;17.50;99.90;;;;;;5083853;28;20315;-64
2023/05/20 11:42:56;;;;;;;;;;;17.60;99.90;;;;;;5088381;28;19924;-64
2023/05/20 11:45:23;;;;;;;;;;;17.70;99.90;;;;;;5082759;28;19932;-60
2023/05/20 11:48:02;;;;;;;;;;;18.10;99.90;;;;;;5084055;28;19936;-61
2023/05/20 11:50:29;;;;;;;;;;;18.10;99.90;;;;;;5080994;28;20428;-62
2023/05/20 11:53:00;;;;;;;;;;;18.40;99.90;;;;;;5079617;28;19924;-62
2023/05/20 11:55:27;;;;;;;;;;;18.50;99.90;;;;;;5080822;28;20434;-59
2023/05/20 11:57:55;;;;;;;;;;;18.50;99.90;;;;;;5080667;28;19951;-60
2023/05/20 12:00:21;;;;;;;;;;;18.50;99.90;;;;;;5073753;28;20485;-60
2023/05/20 12:02:48;;;;;;;;;;;18.50;99.90;;;;;;5081928;28;20002;-62
2023/05/20 12:05:15;;;;;;;;;;;18.90;99.90;;;;;;5087653;28;19978;-61
2023/05/20 12:07:41;;;;;;;;;;;18.80;99.90;;;;;;5085496;28;20369;-60
2023/05/20 12:10:10;;;;;;;;;;;18.60;99.90;;;;;;5086699;28;20013;-62
2023/05/20 12:12:36;;;;;;;;;;;18.30;99.90;;;;;;5079909;28;19951;-62
2023/05/20 12:15:03;;;;;;;;;;;18.30;99.90;;;;;;5089219;28;19928;-62
2023/05/20 12:17:30;;;;;;;;;;;18.20;99.90;;;;;;5084138;28;19978;-59
2023/05/20 12:19:56;;;;;;;;;;;18.20;99.90;;;;;;5082847;28;19924;-61
2023/05/20 12:22:22;;;;;;;;;;;18.10;99.90;;;;;;5082589;28;19978;-62
2023/05/20 12:24:50;;;;;;;;;;;18.10;99.90;;;;;;5074051;28;20339;-58
2023/05/20 12:27:18;;;;;;;;;;;18.20;99.90;;;;;;5074019;28;19930;-59
2023/05/20 12:29:44;;;;;;;;;;;18.20;99.90;;;;;;5073748;28;19925;-58
2023/05/20 12:32:11;;;;;;;;;;;18.40;99.90;;;;;;5073833;28;19950;-60
2023/05/20 12:34:37;;;;;;;;;;;18.50;99.90;;;;;;5081069;28;19973;-59
2023/05/20 12:37:04;;;;;;;;;;;18.70;99.90;;;;;;5083147;28;20381;-59
2023/05/20 12:39:31;;;;;;;;;;;18.70;99.90;;;;;;5086761;28;20411;-59
2023/05/20 12:41:57;;;;;;;;;;;18.70;99.90;;;;;;5082310;28;19929;-61
2023/05/20 12:44:25;;;;;;;;;;;18.60;99.90;;;;;;5083694;28;19924;-61
2023/05/20 12:46:52;;;;;;;;;;;18.70;99.90;;;;;;5085905;28;19925;-60
2023/05/20 12:49:18;;;;;;;;;;;18.70;99.90;;;;;;5085432;28;20327;-61
2023/05/20 12:51:45;;;;;;;;;;;18.60;99.90;;;;;;5082567;28;19928;-60
2023/05/20 12:54:11;;;;;;;;;;;18.40;99.90;;;;;;5081925;28;20364;-60
2023/05/20 12:56:39;;;;;;;;;;;18.30;99.90;;;;;;5080198;28;20385;-61
2023/05/20 12:59:05;;;;;;;;;;;18.40;99.90;;;;;;5084239;28;19970;-60
2023/05/20 13:01:33;;;;;;;;;;;18.70;99.90;;;;;;5080620;28;19932;-60
2023/05/20 13:04:00;;;;;;;;;;;18.80;99.90;;;;;;5088685;28;20350;-61
2023/05/20 13:06:26;;;;;;;;;;;18.80;99.90;;;;;;5087265;28;19981;-60
2023/05/20 13:08:53;;;;;;;;;;;18.40;99.90;;;;;;5087927;28;19924;-60
2023/05/20 13:11:20;;;;;;;;;;;18.20;99.90;;;;;;5083704;28;19970;-61
2023/05/20 13:13:47;;;;;;;;;;;18.20;99.90;;;;;;5083316;28;20384;-61
2023/05/20 13:16:15;;;;;;;;;;;18.40;99.90;;;;;;5082106;28;19924;-61
2023/05/20 13:18:43;;;;;;;;;;;18.40;99.90;;;;;;5078815;28;19925;-62
2023/05/20 13:21:10;;;;;;;;;;;18.70;99.90;;;;;;5079281;28;19970;-62
2023/05/20 13:23:36;;;;;;;;;;;18.70;99.90;;;;;;5083893;28;20047;-62
2023/05/20 13:26:03;;;;;;;;;;;18.60;99.90;;;;;;5082355;28;20598;-62
2023/05/20 13:28:30;;;;;;;;;;;18.60;99.90;;;;;;5082134;28;19978;-62
2023/05/20 13:30:56;;;;;;;;;;;18.50;99.90;;;;;;5084889;28;19981;-62
2023/05/20 13:33:23;;;;;;;;;;;18.60;99.90;;;;;;5079727;28;19924;-64
2023/05/20 13:35:51;;;;;;;;;;;18.70;99.90;;;;;;5082441;28;19951;-64
2023/05/20 13:38:18;;;;;;;;;;;18.50;99.90;;;;;;5080487;28;19975;-67
2023/05/20 13:40:44;;;;;;;;;;;18.40;99.90;;;;;;5083479;28;19975;-66
2023/05/20 13:43:11;;;;;;;;;;;18.40;99.90;;;;;;5077228;28;19925;-66
2023/05/20 13:45:37;;;;;;;;;;;18.50;99.90;;;;;;5090431;28;19928;-61
2023/05/20 13:48:04;;;;;;;;;;;18.50;99.90;;;;;;5084514;28;19931;-61
2023/05/20 13:50:31;;;;;;;;;;;18.50;99.90;;;;;;5081226;28;19967;-60
2023/05/20 13:52:59;;;;;;;;;;;18.60;99.90;;;;;;5083416;28;19928;-58
2023/05/20 13:55:25;;;;;;;;;;;18.80;99.90;;;;;;5080489;28;19924;-64
2023/05/20 13:57:53;;;;;;;;;;;18.90;99.90;;;;;;5082125;28;20300;-63
2023/05/20 14:00:19;;;;;;;;;;;18.80;99.90;;;;;;5080963;28;19973;-64
2023/05/20 14:02:46;;;;;;;;;;;18.70;99.90;;;;;;5079055;28;19924;-62
2023/05/20 14:05:12;;;;;;;;;;;18.70;99.90;;;;;;5079456;28;19924;-62
2023/05/20 14:07:39;;;;;;;;;;;18.70;99.90;;;;;;5081123;28;19975;-63
2023/05/20 14:10:09;;;;;;;;;;;18.90;99.90;;;;;;5086126;28;19974;-64
2023/05/20 14:12:35;;;;;;;;;;;18.80;99.90;;;;;;5084756;28;20007;-64
2023/05/20 14:15:02;;;;;;;;;;;18.50;99.90;;;;;;5083575;28;19924;-63
2023/05/20 14:17:29;;;;;;;;;;;18.40;99.90;;;;;;5083093;28;20373;-63
2023/05/20 14:19:55;;;;;;;;;;;18.10;99.90;;;;;;5082642;28;19925;-63
2023/05/20 14:22:22;;;;;;;;;;;18.10;99.90;;;;;;5088179;28;19924;-62